CheckWX is a tool to help pilots better visualize weather data.  It is not intended as a substitute for an official pre-flight weather briefing.

20:57:47 UTC

KSSC TAF
Shaw AFB Airport
Sumter, South Carolina, USA
TAF KSSC 291600Z 2916/3022 06008KT 9999 SCT120 BKN200 QNH3003INS BECMG 2917/2918 08008KT 9999 BKN120 OVC200 QNH2999INS BECMG 2921/2922 10006KT 9999 BKN045 OVC100 QNH3002INS BECMG 3001/3002 06007KT 8000 -RA BKN020 OVC040 QNH3004INS BECMG 3011/3012 04009KT 9999 NSW BKN035 BKN090 QNH3015INS TX13/2919Z TN04/3012Z

Jan-29@
16:00 UTC

Jan-29 @ 16:00 UTC

Jan-29@
17:00 UTC

Jan-29 @ 17:00 UTC

TAF KSSC 291600Z 2916/3022 06008KT 9999 SCT120 BKN200 QNH3003INS

Expired

Wind
  • 060° at 8 KTS
Cloud Levels
  • Scattered at 12,000' AGL
  • Broken at 20,000' AGL

Jan-29@
17:00 UTC

Jan-29 @ 17:00 UTC

Jan-29@
21:00 UTC

Jan-29 @ 21:00 UTC

BECMG 2917/2918 08008KT 9999 BKN120 OVC200 QNH2999INS

Becoming

Becoming Conditions expected by Wed, Jan 29, 2020 @ 18:00 UTC

Wind
  • 080° at 8 KTS
Cloud Levels
  • Broken at 12,000' AGL
  • Overcast at 20,000' AGL

Jan-29@
21:00 UTC

Jan-29 @ 21:00 UTC

Jan-30@
01:00 UTC

Jan-30 @ 01:00 UTC

BECMG 2921/2922 10006KT 9999 BKN045 OVC100 QNH3002INS

Becoming

Becoming Conditions expected by Wed, Jan 29, 2020 @ 22:00 UTC

Wind
  • 100° at 6 KTS
Cloud Levels
  • Broken at 4,500' AGL
  • Overcast at 10,000' AGL

Jan-30@
01:00 UTC

Jan-30 @ 01:00 UTC

Jan-30@
11:00 UTC

Jan-30 @ 11:00 UTC

BECMG 3001/3002 06007KT 8000 -RA BKN020 OVC040 QNH3004INS

Becoming

Becoming Conditions expected by Thu, Jan 30, 2020 @ 02:00 UTC

Wind
  • 060° at 7 KTS
Conditions
Light Rain
Cloud Levels
  • Broken at 2,000' AGL
  • Overcast at 4,000' AGL

Jan-30@
11:00 UTC

Jan-30 @ 11:00 UTC

Jan-30@
22:00 UTC

Jan-30 @ 22:00 UTC

BECMG 3011/3012 04009KT 9999 NSW BKN035 BKN090 QNH3015INS TX13/2919Z TN04/3012Z

Becoming

Becoming Conditions expected by Thu, Jan 30, 2020 @ 12:00 UTC

Wind
  • 040° at 9 KTS
Conditions
No significant weather
Cloud Levels
  • Broken at 3,500' AGL
  • Broken at 9,000' AGL